Silia — WDG2034 — position and weather

sailwx.info

Track history (hours):
 
Tides and Currents Weather Stations Pressure Air Temp Water Temp Dewpoint Dewpoint Depression Visibility Wind Speed Wind Dir Waves Ship Positions

Silia

Owner: greger pacific marine, napa, CA. More information available from US FCC via Universal Licensing System and Coast Guard Vessel Documentation Center.

Last reported at 2017-Aug-19 01:48 UTC. Time now 2017-Aug-20 23:08 UTC.
Position N 37°49' W 122°19'.

Length 17 m; draft 3 m.

Type: Tug. MMSI: 367511460.

Date/timePositionNaut miles runAvg speedWind from/ knotsBaromVisibWave heightAir tempDewpointWater temp
2017-Aug-19 01:48N 37°49' W 122°19'0 0.2
2017-Aug-19 01:30N 37°49' W 122°19'4 7.3
2017-Aug-19 01:00N 37°48' W 122°23'1 2.0
2017-Aug-19 00:30N 37°49' W 122°24'0 0.2
2017-Aug-19 00:00N 37°49' W 122°24'0 0.0
2017-Aug-18 23:30N 37°49' W 122°24'0 0.0
2017-Aug-18 23:00N 37°49' W 122°24'0 0.0
2017-Aug-18 22:30N 37°49' W 122°24'0 0.4
2017-Aug-18 22:00N 37°49' W 122°24'4 8.1
2017-Aug-18 21:30N 37°49' W 122°19'2 3.9
2017-Aug-18 21:00N 37°48' W 122°21'1 2.7
2017-Aug-18 20:30N 37°48' W 122°23'0 0.0
2017-Aug-18 20:00N 37°48' W 122°23'0 0.1
2017-Aug-18 19:30N 37°48' W 122°23'0 0.2
2017-Aug-18 19:00N 37°48' W 122°23'0 0.1
2017-Aug-18 18:30N 37°48' W 122°23'0 0.0
2017-Aug-18 18:00N 37°48' W 122°23'0 0.0
2017-Aug-18 17:30N 37°48' W 122°23'0 0.0
2017-Aug-18 17:00N 37°48' W 122°23'0 0.0
2017-Aug-18 16:30N 37°48' W 122°23'2 3.3
2017-Aug-18 16:00N 37°49' W 122°24'0 0.0
2017-Aug-18 15:30N 37°49' W 122°24'0 0.0
2017-Aug-18 15:00N 37°49' W 122°24'0 0.0
2017-Aug-18 14:30N 37°49' W 122°24'2 1.6
2017-Aug-18 13:31N 37°48' W 122°23'4 7.0
2017-Aug-18 13:00N 37°49' W 122°19'0 0.1
2017-Aug-18 12:30N 37°49' W 122°19'0 0.0
2017-Aug-18 12:00N 37°49' W 122°19'0 0.0
2017-Aug-18 11:30N 37°49' W 122°19'0 0.0
2017-Aug-18 11:00N 37°49' W 122°19'0 0.0
2017-Aug-18 10:30N 37°49' W 122°19'0 0.0
2017-Aug-18 10:00N 37°49' W 122°19'0 0.0
2017-Aug-18 09:30N 37°49' W 122°19'0 0.0
2017-Aug-18 09:00N 37°49' W 122°19'0 0.0
2017-Aug-18 08:30N 37°49' W 122°19'0 0.0
2017-Aug-18 08:00N 37°49' W 122°19'0 0.0
2017-Aug-18 07:30N 37°49' W 122°19'0 0.0
2017-Aug-18 07:00N 37°49' W 122°19'0 0.0
2017-Aug-18 06:30N 37°49' W 122°19'0 0.0
2017-Aug-18 06:00N 37°49' W 122°19'0 0.0
2017-Aug-18 05:30N 37°49' W 122°19'0 0.0
2017-Aug-18 05:00N 37°49' W 122°19'0 0.0
2017-Aug-18 04:30N 37°49' W 122°19'0 0.0
2017-Aug-18 04:00N 37°49' W 122°19'0 0.0
2017-Aug-18 03:30N 37°49' W 122°19'0 0.0
2017-Aug-18 03:00N 37°49' W 122°19'0 0.0
2017-Aug-18 02:30N 37°49' W 122°19'0 0.0
2017-Aug-18 02:00N 37°49' W 122°19'0 0.0
2017-Aug-18 01:30N 37°49' W 122°19'0 0.0
2017-Aug-18 01:00N 37°49' W 122°19'0 0.0
2017-Aug-18 00:30N 37°49' W 122°19'0 0.0
2017-Aug-18 00:00N 37°49' W 122°19'0 0.0
2017-Aug-17 23:30N 37°49' W 122°19'0 0.0
2017-Aug-17 23:00N 37°49' W 122°19'0 0.0
2017-Aug-17 22:30N 37°49' W 122°19'0 0.0
2017-Aug-17 22:00N 37°49' W 122°19'1 2.2
2017-Aug-17 21:30N 37°49' W 122°20'2 5.0
2017-Aug-17 21:00N 37°48' W 122°23'0 0.1
2017-Aug-17 20:30N 37°48' W 122°23'0 0.1
2017-Aug-17 20:00N 37°48' W 122°23'0 0.1
2017-Aug-17 19:30N 37°48' W 122°23'2 3.1
2017-Aug-17 19:00N 37°49' W 122°24'0 0.2
2017-Aug-17 18:30N 37°48' W 122°24'0 0.1
2017-Aug-17 18:00N 37°49' W 122°24'1 2.9
2017-Aug-17 17:30N 37°48' W 122°23'2 3.1
2017-Aug-17 17:00N 37°48' W 122°21'1 2.6
2017-Aug-17 16:30N 37°49' W 122°19'1 1.5
2017-Aug-17 16:00N 37°49' W 122°19'1 1.3
2017-Aug-17 15:30N 37°49' W 122°19'2 3.9
2017-Aug-17 15:00N 37°48' W 122°22'2 4.2
2017-Aug-17 14:29N 37°49' W 122°24'2 3.4
2017-Aug-17 14:00N 37°48' W 122°23'0 0.2
2017-Aug-17 13:30N 37°48' W 122°23'3 5.9
2017-Aug-17 13:00N 37°49' W 122°19'0 1.0
2017-Aug-17 12:30N 37°49' W 122°19'0 0.0
2017-Aug-17 12:00N 37°49' W 122°19'0 0.0
2017-Aug-17 11:30N 37°49' W 122°19'0 0.0
2017-Aug-17 11:00N 37°49' W 122°19'0 0.0
2017-Aug-17 10:30N 37°49' W 122°19'0 0.0
2017-Aug-17 10:00N 37°49' W 122°19'0 0.0
2017-Aug-17 09:30N 37°49' W 122°19'0 0.0
2017-Aug-17 09:00N 37°49' W 122°19'0 0.0
2017-Aug-17 08:30N 37°49' W 122°19'0 0.0
2017-Aug-17 08:00N 37°49' W 122°19'0 0.0
2017-Aug-17 07:30N 37°49' W 122°19'0 0.0
2017-Aug-17 07:00N 37°49' W 122°19'0 0.0
2017-Aug-17 06:30N 37°49' W 122°19'0 0.0
2017-Aug-17 06:00N 37°49' W 122°19'0 0.0
2017-Aug-17 05:30N 37°49' W 122°19'0 0.0
2017-Aug-17 05:00N 37°49' W 122°19'0 0.0
2017-Aug-17 04:30N 37°49' W 122°19'0 0.0
2017-Aug-17 04:00N 37°49' W 122°19'0 0.0
2017-Aug-17 03:30N 37°49' W 122°19'0 0.0
2017-Aug-17 03:00N 37°49' W 122°19'0 0.0
2017-Aug-17 02:30N 37°49' W 122°19'0 0.0
2017-Aug-17 02:00N 37°49' W 122°19'0 0.0
2017-Aug-17 01:30N 37°49' W 122°19'3 6.4
2017-Aug-17 01:00N 37°48' W 122°22'2 3.0
2017-Aug-17 00:30N 37°48' W 122°24'0 0.2
2017-Aug-17 00:00N 37°49' W 122°24'0 0.0
2017-Aug-16 23:30N 37°49' W 122°24'0 0.0
2017-Aug-16 23:00N 37°49' W 122°24'0 0.0
2017-Aug-16 22:30N 37°49' W 122°24'0 0.0
2017-Aug-16 22:00N 37°49' W 122°24'0 0.0
2017-Aug-16 21:30N 37°49' W 122°24'0 0.1
2017-Aug-16 21:00N 37°49' W 122°24'0 0.2
2017-Aug-16 20:30N 37°49' W 122°24'0 0.1
2017-Aug-16 20:00N 37°49' W 122°24'0 0.0
2017-Aug-16 19:30N 37°49' W 122°24'0 0.0
2017-Aug-16 19:00N 37°49' W 122°24'2 3.1
2017-Aug-16 18:30N 37°48' W 122°23'0 0.1
2017-Aug-16 18:00N 37°48' W 122°23'0 0.1
2017-Aug-16 17:30N 37°48' W 122°23'0 0.0
2017-Aug-16 17:00N 37°48' W 122°23'0 0.0
2017-Aug-16 16:30N 37°48' W 122°23'0 0.0
2017-Aug-16 16:00N 37°48' W 122°23'1 1.4
2017-Aug-16 15:30N 37°48' W 122°23'1 1.8
2017-Aug-16 15:00N 37°49' W 122°24'0 0.1
2017-Aug-16 14:30N 37°49' W 122°24'2 3.1
2017-Aug-16 14:00N 37°48' W 122°23'0 0.3
2017-Aug-16 13:30N 37°48' W 122°23'3 5.9
2017-Aug-16 13:00N 37°49' W 122°19'1 1.0
2017-Aug-16 12:30N 37°49' W 122°19'0 0.0
2017-Aug-16 12:00N 37°49' W 122°19'0 0.0
2017-Aug-16 11:30N 37°49' W 122°19'0 0.0
2017-Aug-16 11:00N 37°49' W 122°19'0 0.0
2017-Aug-16 10:30N 37°49' W 122°19'0 0.0
2017-Aug-16 10:00N 37°49' W 122°19'0 0.0
2017-Aug-16 09:30N 37°49' W 122°19'0 0.0
2017-Aug-16 09:00N 37°49' W 122°19'0 0.0
2017-Aug-16 08:30N 37°49' W 122°19'0 0.0
2017-Aug-16 08:00N 37°49' W 122°19'0 0.0
2017-Aug-16 07:30N 37°49' W 122°19'0 0.0
2017-Aug-16 07:00N 37°49' W 122°19'0 0.0
2017-Aug-16 06:30N 37°49' W 122°19'0 0.0
2017-Aug-16 06:00N 37°49' W 122°19'0 0.0
2017-Aug-16 05:30N 37°49' W 122°19'0 0.0
2017-Aug-16 05:00N 37°49' W 122°19'0 0.0
2017-Aug-16 04:30N 37°49' W 122°19'0 0.0
2017-Aug-16 04:00N 37°49' W 122°19'0 0.0
2017-Aug-16 03:30N 37°49' W 122°19'0 0.0
2017-Aug-16 03:00N 37°49' W 122°19'0 0.0
2017-Aug-16 02:30N 37°49' W 122°19'0 0.0
2017-Aug-16 02:00N 37°49' W 122°19'0 0.0
2017-Aug-16 01:30N 37°49' W 122°19'0 0.0
2017-Aug-16 01:00N 37°49' W 122°19'0 0.0
2017-Aug-16 00:30N 37°49' W 122°19'0 0.0
2017-Aug-16 00:00N 37°49' W 122°19'0 0.0
2017-Aug-15 23:30N 37°49' W 122°19'0 0.0
2017-Aug-15 23:00N 37°49' W 122°19'0 0.2
2017-Aug-15 22:30N 37°49' W 122°18'0 0.0
2017-Aug-15 22:00N 37°49' W 122°18'2 4.7
2017-Aug-15 21:30N 37°48' W 122°21'3 5.1
2017-Aug-15 21:00N 37°49' W 122°24'0 0.0
2017-Aug-15 20:30N 37°49' W 122°24'2 3.0
2017-Aug-15 20:00N 37°48' W 122°23'0 0.0
2017-Aug-15 19:30N 37°48' W 122°23'0 0.0
2017-Aug-15 19:00N 37°48' W 122°23'0 0.0
2017-Aug-15 18:30N 37°48' W 122°23'0 0.1
2017-Aug-15 18:00N 37°48' W 122°23'0 0.0
2017-Aug-15 17:30N 37°48' W 122°23'0 0.0
2017-Aug-15 17:00N 37°48' W 122°23'0 0.1
2017-Aug-15 16:30N 37°48' W 122°23'0 0.0
2017-Aug-15 16:00N 37°48' W 122°23'0 0.3
2017-Aug-15 15:30N 37°48' W 122°23'2 3.3
2017-Aug-15 15:00N 37°49' W 122°24'0 0.1
2017-Aug-15 14:31N 37°49' W 122°24'2 3.2
2017-Aug-15 14:01N 37°48' W 122°23'0 0.3
2017-Aug-15 13:30N 37°48' W 122°23'3 5.8
2017-Aug-15 13:00N 37°49' W 122°19'1 1.1
2017-Aug-15 12:30N 37°49' W 122°19'0 0.0
2017-Aug-15 12:00N 37°49' W 122°19'0 0.0
2017-Aug-15 11:30N 37°49' W 122°19'0 0.0
2017-Aug-15 11:00N 37°49' W 122°19'0 0.0
2017-Aug-15 10:30N 37°49' W 122°19'0 0.0
2017-Aug-15 10:00N 37°49' W 122°19'0 0.0
2017-Aug-15 09:30N 37°49' W 122°19'0 0.0
2017-Aug-15 09:00N 37°49' W 122°19'0 0.0
2017-Aug-15 08:30N 37°49' W 122°19'0 0.0
2017-Aug-15 08:00N 37°49' W 122°19'0 0.0
2017-Aug-15 07:30N 37°49' W 122°19'0 0.0
2017-Aug-15 07:00N 37°49' W 122°19'0 0.0
2017-Aug-15 06:30N 37°49' W 122°19'0 0.0
2017-Aug-15 06:00N 37°49' W 122°19'0 0.0
2017-Aug-15 05:30N 37°49' W 122°19'0 0.0
2017-Aug-15 05:00N 37°49' W 122°19'0 0.0
2017-Aug-15 04:30N 37°49' W 122°19'0 0.0
2017-Aug-15 04:00N 37°49' W 122°19'0 0.0
2017-Aug-15 03:30N 37°49' W 122°19'0 0.0
2017-Aug-15 03:00N 37°49' W 122°19'0 0.0
2017-Aug-15 02:30N 37°49' W 122°19'0 0.0
2017-Aug-15 02:00N 37°49' W 122°19'0 0.0
2017-Aug-15 01:30N 37°49' W 122°19'0 0.0
2017-Aug-15 01:00N 37°49' W 122°19'0 0.0
2017-Aug-15 00:30N 37°49' W 122°19'0 0.0
2017-Aug-15 00:00N 37°49' W 122°19'0 0.0
2017-Aug-14 23:30N 37°49' W 122°19'0 0.0
2017-Aug-14 23:00N 37°49' W 122°19'0 0.0
2017-Aug-14 22:30N 37°49' W 122°19'0 0.1
2017-Aug-14 22:01N 37°49' W 122°19'3 6.0
2017-Aug-14 21:30N 37°48' W 122°22'2 3.7
2017-Aug-14 21:00N 37°49' W 122°24'0 0.1
2017-Aug-14 20:30N 37°49' W 122°24'1 3.0
2017-Aug-14 20:00N 37°48' W 122°23'4 7.1
2017-Aug-14 19:30N 37°49' W 122°19'4 7.2
2017-Aug-14 19:00N 37°48' W 122°23'0 0.0
2017-Aug-14 18:30N 37°48' W 122°23'0 0.1
2017-Aug-14 18:00N 37°48' W 122°23'0 0.0
2017-Aug-14 17:30N 37°48' W 122°23'0 0.0
2017-Aug-14 17:00N 37°48' W 122°23'0 0.0
2017-Aug-14 16:30N 37°48' W 122°23'0 0.0
2017-Aug-14 16:00N 37°48' W 122°23'0 0.0
2017-Aug-14 15:30N 37°48' W 122°23'1 2.9
2017-Aug-14 15:00N 37°49' W 122°24'0 0.1
2017-Aug-14 14:30N 37°49' W 122°24'1 2.9
2017-Aug-14 14:00N 37°48' W 122°23'2 3.5
2017-Aug-14 13:30N 37°48' W 122°21'2 3.7
2017-Aug-14 13:00N 37°49' W 122°19'0 0.0
2017-Aug-14 12:30N 37°49' W 122°19'  
2017-Aug-11 21:44N 37°49' W 122°19'0 0.0
2017-Aug-11 21:31N 37°49' W 122°19'3 6.8
2017-Aug-11 21:00N 37°48' W 122°23'0 0.2
2017-Aug-11 20:31N 37°48' W 122°23'1 1.7
2017-Aug-11 20:00N 37°48' W 122°24'1 1.5
2017-Aug-11 19:31N 37°49' W 122°24'1 2.4
2017-Aug-11 19:01N 37°48' W 122°23'0 0.8
2017-Aug-11 18:30N 37°48' W 122°23'0 0.0
2017-Aug-11 18:01N 37°48' W 122°23'0 0.0
2017-Aug-11 17:31N 37°48' W 122°23'0 0.0
2017-Aug-11 17:00N 37°48' W 122°23'0 0.0
2017-Aug-11 16:31N 37°48' W 122°23'0 0.0
2017-Aug-11 16:00N 37°48' W 122°23'1 2.3
2017-Aug-11 15:30N 37°48' W 122°24'0 0.9
2017-Aug-11 15:01N 37°49' W 122°24'2 1.7
2017-Aug-11 14:01N 37°48' W 122°23'0 0.0
2017-Aug-11 13:31N 37°48' W 122°23'3 6.9
2017-Aug-11 13:00N 37°49' W 122°19'0 0.0
2017-Aug-11 12:30N 37°49' W 122°19'0 0.0
2017-Aug-11 12:00N 37°49' W 122°19'0 0.0
2017-Aug-11 11:31N 37°49' W 122°19'0 0.0
2017-Aug-11 11:00N 37°49' W 122°19'0 0.0
2017-Aug-11 10:31N 37°49' W 122°19'0 0.0
2017-Aug-11 10:01N 37°49' W 122°19'0 0.0
2017-Aug-11 09:31N 37°49' W 122°19'0 0.0
2017-Aug-11 09:01N 37°49' W 122°19'0 0.0
2017-Aug-11 08:31N 37°49' W 122°19'0 0.0
2017-Aug-11 08:00N 37°49' W 122°19'0 0.0
2017-Aug-11 07:30N 37°49' W 122°19'0 0.0
2017-Aug-11 07:00N 37°49' W 122°19'0 0.0
2017-Aug-11 06:30N 37°49' W 122°19'0 0.0
2017-Aug-11 06:01N 37°49' W 122°19'0 0.0
2017-Aug-11 05:30N 37°49' W 122°19'0 0.0
2017-Aug-11 05:00N 37°49' W 122°19'0 0.0
2017-Aug-11 04:30N 37°49' W 122°19'0 0.0
2017-Aug-11 04:00N 37°49' W 122°19'0 0.0
2017-Aug-11 03:31N 37°49' W 122°19'0 0.0
2017-Aug-11 03:00N 37°49' W 122°19'0 0.0
2017-Aug-11 02:31N 37°49' W 122°19'0 0.0
2017-Aug-11 02:00N 37°49' W 122°19'0 0.0
2017-Aug-11 01:31N 37°49' W 122°19'0 0.0
2017-Aug-11 01:01N 37°49' W 122°19'0 0.0
2017-Aug-11 00:30N 37°49' W 122°19'0 0.0
2017-Aug-11 00:00N 37°49' W 122°19'0 0.0
2017-Aug-10 23:31N 37°49' W 122°19'0 0.0
2017-Aug-10 23:01N 37°49' W 122°19'2 4.8
2017-Aug-10 22:31N 37°48' W 122°21'2 4.8
2017-Aug-10 22:01N 37°49' W 122°24'0 0.1
2017-Aug-10 21:29N 37°49' W 122°24'2 3.3
2017-Aug-10 21:00N 37°48' W 122°23'0 0.1
2017-Aug-10 20:30N 37°48' W 122°23'0 0.0
2017-Aug-10 20:01N 37°48' W 122°23'0 0.0
2017-Aug-10 19:30N 37°48' W 122°23'0 0.0
2017-Aug-10 19:00N 37°48' W 122°23'0 0.0
2017-Aug-10 18:30N 37°48' W 122°23'0 0.0
2017-Aug-10 18:00N 37°48' W 122°23'0 0.0
2017-Aug-10 17:30N 37°48' W 122°23'0 0.0
2017-Aug-10 17:00N 37°48' W 122°23'0 0.0
2017-Aug-10 16:30N 37°48' W 122°23'0 0.0
2017-Aug-10 16:00N 37°48' W 122°23'0 0.0
2017-Aug-10 15:30N 37°48' W 122°23'1 2.8
2017-Aug-10 15:00N 37°49' W 122°24'0 0.3
2017-Aug-10 14:30N 37°49' W 122°24'1 2.4
2017-Aug-10 14:01N 37°48' W 122°23'0 0.7
2017-Aug-10 13:30N 37°48' W 122°23'2 3.4
2017-Aug-10 13:00N 37°48' W 122°21'2 3.7
2017-Aug-10 12:30N 37°49' W 122°18'0 0.0
2017-Aug-10 12:00N 37°49' W 122°18'0 0.0
2017-Aug-10 11:31N 37°49' W 122°18'0 0.0
2017-Aug-10 11:00N 37°49' W 122°18'0 0.0
2017-Aug-10 10:30N 37°49' W 122°18'0 0.0
2017-Aug-10 10:01N 37°49' W 122°18'0 0.0
2017-Aug-10 09:30N 37°49' W 122°18'0 0.0
2017-Aug-10 09:01N 37°49' W 122°18'0 0.0
2017-Aug-10 08:31N 37°49' W 122°18'0 0.0
2017-Aug-10 08:00N 37°49' W 122°18'0 0.0
2017-Aug-10 07:31N 37°49' W 122°18'0 0.0
2017-Aug-10 07:00N 37°49' W 122°18'0 0.0
2017-Aug-10 06:30N 37°49' W 122°18'0 0.0
2017-Aug-10 06:00N 37°49' W 122°18'0 0.0
2017-Aug-10 05:30N 37°49' W 122°18'0 0.0
2017-Aug-10 05:01N 37°49' W 122°18'0 0.0
2017-Aug-10 04:30N 37°49' W 122°18'0 0.0
2017-Aug-10 04:00N 37°49' W 122°18'0 0.0
2017-Aug-10 03:30N 37°49' W 122°18'0 0.0
2017-Aug-10 03:00N 37°49' W 122°18'0 0.0
2017-Aug-10 02:30N 37°49' W 122°18'0 0.0
2017-Aug-10 02:00N 37°49' W 122°18'0 0.0
2017-Aug-10 01:30N 37°49' W 122°18'0 0.1
2017-Aug-10 01:00N 37°49' W 122°19'4 7.1
2017-Aug-10 00:30N 37°48' W 122°23'1 2.7
2017-Aug-10 00:00N 37°49' W 122°24'0 0.1
2017-Aug-09 23:30N 37°49' W 122°24'0 0.1
2017-Aug-09 23:00N 37°49' W 122°24'0 0.0
2017-Aug-09 22:30N 37°49' W 122°24'0 0.0
2017-Aug-09 22:00N 37°49' W 122°24'0 0.0
2017-Aug-09 21:30N 37°49' W 122°24'2 4.4
2017-Aug-09 21:00N 37°48' W 122°22'3 5.3
2017-Aug-09 20:31N 37°49' W 122°19'3 5.4
2017-Aug-09 20:00N 37°48' W 122°22'1 1.4
2017-Aug-09 19:31N 37°48' W 122°23'0 0.0
2017-Aug-09 19:00N 37°48' W 122°23'0 0.0
2017-Aug-09 18:30N 37°48' W 122°23'0 0.0
2017-Aug-09 18:01N 37°48' W 122°23'0 0.1
2017-Aug-09 17:30N 37°48' W 122°22'0 0.0
2017-Aug-09 17:01N 37°48' W 122°22'0 0.3
2017-Aug-09 16:31N 37°48' W 122°23'2 3.1
2017-Aug-09 16:00N 37°49' W 122°24'0 0.0
2017-Aug-09 15:31N 37°49' W 122°24'0 0.1
2017-Aug-09 15:00N 37°49' W 122°24'0 0.1
2017-Aug-09 14:30N 37°49' W 122°24'1 2.7
2017-Aug-09 14:00N 37°48' W 122°23'1 2.1
2017-Aug-09 13:31N 37°48' W 122°22'3 5.1
2017-Aug-09 13:01N 37°49' W 122°19'0 0.2
2017-Aug-09 12:31N 37°49' W 122°18'0 0.0
2017-Aug-09 12:00N 37°49' W 122°18'0 0.0
2017-Aug-09 11:31N 37°49' W 122°18'0 0.0
2017-Aug-09 11:00N 37°49' W 122°18'0 0.0
2017-Aug-09 10:30N 37°49' W 122°18'0 0.0
2017-Aug-09 10:00N 37°49' W 122°18'0 0.0
2017-Aug-09 09:31N 37°49' W 122°18'0 0.0
2017-Aug-09 09:01N 37°49' W 122°18'0 0.0
2017-Aug-09 08:31N 37°49' W 122°18'0 0.0
2017-Aug-09 08:01N 37°49' W 122°18'0 0.0
2017-Aug-09 07:30N 37°49' W 122°18'0 0.0
2017-Aug-09 07:01N 37°49' W 122°18'0 0.0
2017-Aug-09 06:31N 37°49' W 122°18'0 0.0
2017-Aug-09 06:00N 37°49' W 122°18'0 0.0
2017-Aug-09 05:31N 37°49' W 122°18'0 0.0
2017-Aug-09 05:00N 37°49' W 122°18'0 0.0
2017-Aug-09 04:31N 37°49' W 122°18'0 0.0
2017-Aug-09 04:01N 37°49' W 122°18'0 0.0
2017-Aug-09 03:30N 37°49' W 122°18'0 0.0
2017-Aug-09 03:01N 37°49' W 122°18'0 0.0
2017-Aug-09 02:30N 37°49' W 122°18'0 0.0
2017-Aug-09 02:00N 37°49' W 122°18'  
Track history (hours):
 
Tides and Currents Weather Stations Pressure Air Temp Water Temp Dewpoint Dewpoint Depression Visibility Wind Speed Wind Dir Waves Ship Positions

Silia

Owner: greger pacific marine, napa, CA. More information available from US FCC via Universal Licensing System and Coast Guard Vessel Documentation Center.

Last reported at 2017-Aug-19 01:48 UTC. Time now 2017-Aug-20 23:08 UTC.
Position N 37°49' W 122°19'.

Length 17 m; draft 3 m.

Type: Tug. MMSI: 367511460.

Date/timePositionNaut miles runAvg speedWind from/ knotsBaromVisibWave heightAir tempDewpointWater temp
2017-Aug-19 01:48N 37°49' W 122°19'0 0.2
2017-Aug-19 01:30N 37°49' W 122°19'4 7.3
2017-Aug-19 01:00N 37°48' W 122°23'1 2.0
2017-Aug-19 00:30N 37°49' W 122°24'0 0.2
2017-Aug-19 00:00N 37°49' W 122°24'0 0.0
2017-Aug-18 23:30N 37°49' W 122°24'0 0.0
2017-Aug-18 23:00N 37°49' W 122°24'0 0.0
2017-Aug-18 22:30N 37°49' W 122°24'0 0.4
2017-Aug-18 22:00N 37°49' W 122°24'4 8.1
2017-Aug-18 21:30N 37°49' W 122°19'2 3.9
2017-Aug-18 21:00N 37°48' W 122°21'1 2.7
2017-Aug-18 20:30N 37°48' W 122°23'0 0.0
2017-Aug-18 20:00N 37°48' W 122°23'0 0.1
2017-Aug-18 19:30N 37°48' W 122°23'0 0.2
2017-Aug-18 19:00N 37°48' W 122°23'0 0.1
2017-Aug-18 18:30N 37°48' W 122°23'0 0.0
2017-Aug-18 18:00N 37°48' W 122°23'0 0.0
2017-Aug-18 17:30N 37°48' W 122°23'0 0.0
2017-Aug-18 17:00N 37°48' W 122°23'0 0.0
2017-Aug-18 16:30N 37°48' W 122°23'2 3.3
2017-Aug-18 16:00N 37°49' W 122°24'0 0.0
2017-Aug-18 15:30N 37°49' W 122°24'0 0.0
2017-Aug-18 15:00N 37°49' W 122°24'0 0.0
2017-Aug-18 14:30N 37°49' W 122°24'2 1.6
2017-Aug-18 13:31N 37°48' W 122°23'4 7.0
2017-Aug-18 13:00N 37°49' W 122°19'0 0.1
2017-Aug-18 12:30N 37°49' W 122°19'0 0.0
2017-Aug-18 12:00N 37°49' W 122°19'0 0.0
2017-Aug-18 11:30N 37°49' W 122°19'0 0.0
2017-Aug-18 11:00N 37°49' W 122°19'0 0.0
2017-Aug-18 10:30N 37°49' W 122°19'0 0.0
2017-Aug-18 10:00N 37°49' W 122°19'0 0.0
2017-Aug-18 09:30N 37°49' W 122°19'0 0.0
2017-Aug-18 09:00N 37°49' W 122°19'0 0.0
2017-Aug-18 08:30N 37°49' W 122°19'0 0.0
2017-Aug-18 08:00N 37°49' W 122°19'0 0.0
2017-Aug-18 07:30N 37°49' W 122°19'0 0.0
2017-Aug-18 07:00N 37°49' W 122°19'0 0.0
2017-Aug-18 06:30N 37°49' W 122°19'0 0.0
2017-Aug-18 06:00N 37°49' W 122°19'0 0.0
2017-Aug-18 05:30N 37°49' W 122°19'0 0.0
2017-Aug-18 05:00N 37°49' W 122°19'0 0.0
2017-Aug-18 04:30N 37°49' W 122°19'0 0.0
2017-Aug-18 04:00N 37°49' W 122°19'0 0.0
2017-Aug-18 03:30N 37°49' W 122°19'0 0.0
2017-Aug-18 03:00N 37°49' W 122°19'0 0.0
2017-Aug-18 02:30N 37°49' W 122°19'0 0.0
2017-Aug-18 02:00N 37°49' W 122°19'0 0.0
2017-Aug-18 01:30N 37°49' W 122°19'0 0.0
2017-Aug-18 01:00N 37°49' W 122°19'0 0.0
2017-Aug-18 00:30N 37°49' W 122°19'0 0.0
2017-Aug-18 00:00N 37°49' W 122°19'0 0.0
2017-Aug-17 23:30N 37°49' W 122°19'0 0.0
2017-Aug-17 23:00N 37°49' W 122°19'0 0.0
2017-Aug-17 22:30N 37°49' W 122°19'0 0.0
2017-Aug-17 22:00N 37°49' W 122°19'1 2.2
2017-Aug-17 21:30N 37°49' W 122°20'2 5.0
2017-Aug-17 21:00N 37°48' W 122°23'0 0.1
2017-Aug-17 20:30N 37°48' W 122°23'0 0.1
2017-Aug-17 20:00N 37°48' W 122°23'0 0.1
2017-Aug-17 19:30N 37°48' W 122°23'2 3.1
2017-Aug-17 19:00N 37°49' W 122°24'0 0.2
2017-Aug-17 18:30N 37°48' W 122°24'0 0.1
2017-Aug-17 18:00N 37°49' W 122°24'1 2.9
2017-Aug-17 17:30N 37°48' W 122°23'2 3.1
2017-Aug-17 17:00N 37°48' W 122°21'1 2.6
2017-Aug-17 16:30N 37°49' W 122°19'1 1.5
2017-Aug-17 16:00N 37°49' W 122°19'1 1.3
2017-Aug-17 15:30N 37°49' W 122°19'2 3.9
2017-Aug-17 15:00N 37°48' W 122°22'2 4.2
2017-Aug-17 14:29N 37°49' W 122°24'2 3.4
2017-Aug-17 14:00N 37°48' W 122°23'0 0.2
2017-Aug-17 13:30N 37°48' W 122°23'3 5.9
2017-Aug-17 13:00N 37°49' W 122°19'0 1.0
2017-Aug-17 12:30N 37°49' W 122°19'0 0.0
2017-Aug-17 12:00N 37°49' W 122°19'0 0.0
2017-Aug-17 11:30N 37°49' W 122°19'0 0.0
2017-Aug-17 11:00N 37°49' W 122°19'0 0.0
2017-Aug-17 10:30N 37°49' W 122°19'0 0.0
2017-Aug-17 10:00N 37°49' W 122°19'0 0.0
2017-Aug-17 09:30N 37°49' W 122°19'0 0.0
2017-Aug-17 09:00N 37°49' W 122°19'0 0.0
2017-Aug-17 08:30N 37°49' W 122°19'0 0.0
2017-Aug-17 08:00N 37°49' W 122°19'0 0.0
2017-Aug-17 07:30N 37°49' W 122°19'0 0.0
2017-Aug-17 07:00N 37°49' W 122°19'0 0.0
2017-Aug-17 06:30N 37°49' W 122°19'0 0.0
2017-Aug-17 06:00N 37°49' W 122°19'0 0.0
2017-Aug-17 05:30N 37°49' W 122°19'0 0.0
2017-Aug-17 05:00N 37°49' W 122°19'0 0.0
2017-Aug-17 04:30N 37°49' W 122°19'0 0.0
2017-Aug-17 04:00N 37°49' W 122°19'0 0.0
2017-Aug-17 03:30N 37°49' W 122°19'0 0.0
2017-Aug-17 03:00N 37°49' W 122°19'0 0.0
2017-Aug-17 02:30N 37°49' W 122°19'0 0.0
2017-Aug-17 02:00N 37°49' W 122°19'0 0.0
2017-Aug-17 01:30N 37°49' W 122°19'3 6.4
2017-Aug-17 01:00N 37°48' W 122°22'2 3.0
2017-Aug-17 00:30N 37°48' W 122°24'0 0.2
2017-Aug-17 00:00N 37°49' W 122°24'0 0.0
2017-Aug-16 23:30N 37°49' W 122°24'0 0.0
2017-Aug-16 23:00N 37°49' W 122°24'0 0.0
2017-Aug-16 22:30N 37°49' W 122°24'0 0.0
2017-Aug-16 22:00N 37°49' W 122°24'0 0.0
2017-Aug-16 21:30N 37°49' W 122°24'0 0.1
2017-Aug-16 21:00N 37°49' W 122°24'0 0.2
2017-Aug-16 20:30N 37°49' W 122°24'0 0.1
2017-Aug-16 20:00N 37°49' W 122°24'0 0.0
2017-Aug-16 19:30N 37°49' W 122°24'0 0.0
2017-Aug-16 19:00N 37°49' W 122°24'2 3.1
2017-Aug-16 18:30N 37°48' W 122°23'0 0.1
2017-Aug-16 18:00N 37°48' W 122°23'0 0.1
2017-Aug-16 17:30N 37°48' W 122°23'0 0.0
2017-Aug-16 17:00N 37°48' W 122°23'0 0.0
2017-Aug-16 16:30N 37°48' W 122°23'0 0.0
2017-Aug-16 16:00N 37°48' W 122°23'1 1.4
2017-Aug-16 15:30N 37°48' W 122°23'1 1.8
2017-Aug-16 15:00N 37°49' W 122°24'0 0.1
2017-Aug-16 14:30N 37°49' W 122°24'2 3.1
2017-Aug-16 14:00N 37°48' W 122°23'0 0.3
2017-Aug-16 13:30N 37°48' W 122°23'3 5.9
2017-Aug-16 13:00N 37°49' W 122°19'1 1.0
2017-Aug-16 12:30N 37°49' W 122°19'0 0.0
2017-Aug-16 12:00N 37°49' W 122°19'0 0.0
2017-Aug-16 11:30N 37°49' W 122°19'0 0.0
2017-Aug-16 11:00N 37°49' W 122°19'0 0.0
2017-Aug-16 10:30N 37°49' W 122°19'0 0.0
2017-Aug-16 10:00N 37°49' W 122°19'0 0.0
2017-Aug-16 09:30N 37°49' W 122°19'0 0.0
2017-Aug-16 09:00N 37°49' W 122°19'0 0.0
2017-Aug-16 08:30N 37°49' W 122°19'0 0.0
2017-Aug-16 08:00N 37°49' W 122°19'0 0.0
2017-Aug-16 07:30N 37°49' W 122°19'0 0.0
2017-Aug-16 07:00N 37°49' W 122°19'0 0.0
2017-Aug-16 06:30N 37°49' W 122°19'0 0.0
2017-Aug-16 06:00N 37°49' W 122°19'0 0.0
2017-Aug-16 05:30N 37°49' W 122°19'0 0.0
2017-Aug-16 05:00N 37°49' W 122°19'0 0.0
2017-Aug-16 04:30N 37°49' W 122°19'0 0.0
2017-Aug-16 04:00N 37°49' W 122°19'0 0.0
2017-Aug-16 03:30N 37°49' W 122°19'0 0.0
2017-Aug-16 03:00N 37°49' W 122°19'0 0.0
2017-Aug-16 02:30N 37°49' W 122°19'0 0.0
2017-Aug-16 02:00N 37°49' W 122°19'0 0.0
2017-Aug-16 01:30N 37°49' W 122°19'0 0.0
2017-Aug-16 01:00N 37°49' W 122°19'0 0.0
2017-Aug-16 00:30N 37°49' W 122°19'0 0.0
2017-Aug-16 00:00N 37°49' W 122°19'0 0.0
2017-Aug-15 23:30N 37°49' W 122°19'0 0.0
2017-Aug-15 23:00N 37°49' W 122°19'0 0.2
2017-Aug-15 22:30N 37°49' W 122°18'0 0.0
2017-Aug-15 22:00N 37°49' W 122°18'2 4.7
2017-Aug-15 21:30N 37°48' W 122°21'3 5.1
2017-Aug-15 21:00N 37°49' W 122°24'0 0.0
2017-Aug-15 20:30N 37°49' W 122°24'2 3.0
2017-Aug-15 20:00N 37°48' W 122°23'0 0.0
2017-Aug-15 19:30N 37°48' W 122°23'0 0.0
2017-Aug-15 19:00N 37°48' W 122°23'0 0.0
2017-Aug-15 18:30N 37°48' W 122°23'0 0.1
2017-Aug-15 18:00N 37°48' W 122°23'0 0.0
2017-Aug-15 17:30N 37°48' W 122°23'0 0.0
2017-Aug-15 17:00N 37°48' W 122°23'0 0.1
2017-Aug-15 16:30N 37°48' W 122°23'0 0.0
2017-Aug-15 16:00N 37°48' W 122°23'0 0.3
2017-Aug-15 15:30N 37°48' W 122°23'2 3.3
2017-Aug-15 15:00N 37°49' W 122°24'0 0.1
2017-Aug-15 14:31N 37°49' W 122°24'2 3.2
2017-Aug-15 14:01N 37°48' W 122°23'0 0.3
2017-Aug-15 13:30N 37°48' W 122°23'3 5.8
2017-Aug-15 13:00N 37°49' W 122°19'1 1.1
2017-Aug-15 12:30N 37°49' W 122°19'0 0.0
2017-Aug-15 12:00N 37°49' W 122°19'0 0.0
2017-Aug-15 11:30N 37°49' W 122°19'0 0.0
2017-Aug-15 11:00N 37°49' W 122°19'0 0.0
2017-Aug-15 10:30N 37°49' W 122°19'0 0.0
2017-Aug-15 10:00N 37°49' W 122°19'0 0.0
2017-Aug-15 09:30N 37°49' W 122°19'0 0.0
2017-Aug-15 09:00N 37°49' W 122°19'0 0.0
2017-Aug-15 08:30N 37°49' W 122°19'0 0.0
2017-Aug-15 08:00N 37°49' W 122°19'0 0.0
2017-Aug-15 07:30N 37°49' W 122°19'0 0.0
2017-Aug-15 07:00N 37°49' W 122°19'0 0.0
2017-Aug-15 06:30N 37°49' W 122°19'0 0.0
2017-Aug-15 06:00N 37°49' W 122°19'0 0.0
2017-Aug-15 05:30N 37°49' W 122°19'0 0.0
2017-Aug-15 05:00N 37°49' W 122°19'0 0.0
2017-Aug-15 04:30N 37°49' W 122°19'0 0.0
2017-Aug-15 04:00N 37°49' W 122°19'0 0.0
2017-Aug-15 03:30N 37°49' W 122°19'0 0.0
2017-Aug-15 03:00N 37°49' W 122°19'0 0.0
2017-Aug-15 02:30N 37°49' W 122°19'0 0.0
2017-Aug-15 02:00N 37°49' W 122°19'0 0.0
2017-Aug-15 01:30N 37°49' W 122°19'0 0.0
2017-Aug-15 01:00N 37°49' W 122°19'0 0.0
2017-Aug-15 00:30N 37°49' W 122°19'0 0.0
2017-Aug-15 00:00N 37°49' W 122°19'0 0.0
2017-Aug-14 23:30N 37°49' W 122°19'0 0.0
2017-Aug-14 23:00N 37°49' W 122°19'0 0.0
2017-Aug-14 22:30N 37°49' W 122°19'0 0.1
2017-Aug-14 22:01N 37°49' W 122°19'3 6.0
2017-Aug-14 21:30N 37°48' W 122°22'2 3.7
2017-Aug-14 21:00N 37°49' W 122°24'0 0.1
2017-Aug-14 20:30N 37°49' W 122°24'1 3.0
2017-Aug-14 20:00N 37°48' W 122°23'4 7.1
2017-Aug-14 19:30N 37°49' W 122°19'4 7.2
2017-Aug-14 19:00N 37°48' W 122°23'0 0.0
2017-Aug-14 18:30N 37°48' W 122°23'0 0.1
2017-Aug-14 18:00N 37°48' W 122°23'0 0.0
2017-Aug-14 17:30N 37°48' W 122°23'0 0.0
2017-Aug-14 17:00N 37°48' W 122°23'0 0.0
2017-Aug-14 16:30N 37°48' W 122°23'0 0.0
2017-Aug-14 16:00N 37°48' W 122°23'0 0.0
2017-Aug-14 15:30N 37°48' W 122°23'1 2.9
2017-Aug-14 15:00N 37°49' W 122°24'0 0.1
2017-Aug-14 14:30N 37°49' W 122°24'1 2.9
2017-Aug-14 14:00N 37°48' W 122°23'2 3.5
2017-Aug-14 13:30N 37°48' W 122°21'2 3.7
2017-Aug-14 13:00N 37°49' W 122°19'0 0.0
2017-Aug-14 12:30N 37°49' W 122°19'  
2017-Aug-11 21:44N 37°49' W 122°19'0 0.0
2017-Aug-11 21:31N 37°49' W 122°19'3 6.8
2017-Aug-11 21:00N 37°48' W 122°23'0 0.2
2017-Aug-11 20:31N 37°48' W 122°23'1 1.7
2017-Aug-11 20:00N 37°48' W 122°24'1 1.5
2017-Aug-11 19:31N 37°49' W 122°24'1 2.4
2017-Aug-11 19:01N 37°48' W 122°23'0 0.8
2017-Aug-11 18:30N 37°48' W 122°23'0 0.0
2017-Aug-11 18:01N 37°48' W 122°23'0 0.0
2017-Aug-11 17:31N 37°48' W 122°23'0 0.0
2017-Aug-11 17:00N 37°48' W 122°23'0 0.0
2017-Aug-11 16:31N 37°48' W 122°23'0 0.0
2017-Aug-11 16:00N 37°48' W 122°23'1 2.3
2017-Aug-11 15:30N 37°48' W 122°24'0 0.9
2017-Aug-11 15:01N 37°49' W 122°24'2 1.7
2017-Aug-11 14:01N 37°48' W 122°23'0 0.0
2017-Aug-11 13:31N 37°48' W 122°23'3 6.9
2017-Aug-11 13:00N 37°49' W 122°19'0 0.0
2017-Aug-11 12:30N 37°49' W 122°19'0 0.0
2017-Aug-11 12:00N 37°49' W 122°19'0 0.0
2017-Aug-11 11:31N 37°49' W 122°19'0 0.0
2017-Aug-11 11:00N 37°49' W 122°19'0 0.0
2017-Aug-11 10:31N 37°49' W 122°19'0 0.0
2017-Aug-11 10:01N 37°49' W 122°19'0 0.0
2017-Aug-11 09:31N 37°49' W 122°19'0 0.0
2017-Aug-11 09:01N 37°49' W 122°19'0 0.0
2017-Aug-11 08:31N 37°49' W 122°19'0 0.0
2017-Aug-11 08:00N 37°49' W 122°19'0 0.0
2017-Aug-11 07:30N 37°49' W 122°19'0 0.0
2017-Aug-11 07:00N 37°49' W 122°19'0 0.0
2017-Aug-11 06:30N 37°49' W 122°19'0 0.0
2017-Aug-11 06:01N 37°49' W 122°19'0 0.0
2017-Aug-11 05:30N 37°49' W 122°19'0 0.0
2017-Aug-11 05:00N 37°49' W 122°19'0 0.0
2017-Aug-11 04:30N 37°49' W 122°19'0 0.0
2017-Aug-11 04:00N 37°49' W 122°19'0 0.0
2017-Aug-11 03:31N 37°49' W 122°19'0 0.0
2017-Aug-11 03:00N 37°49' W 122°19'0 0.0
2017-Aug-11 02:31N 37°49' W 122°19'0 0.0
2017-Aug-11 02:00N 37°49' W 122°19'0 0.0
2017-Aug-11 01:31N 37°49' W 122°19'0 0.0
2017-Aug-11 01:01N 37°49' W 122°19'0 0.0
2017-Aug-11 00:30N 37°49' W 122°19'0 0.0
2017-Aug-11 00:00N 37°49' W 122°19'0 0.0
2017-Aug-10 23:31N 37°49' W 122°19'0 0.0
2017-Aug-10 23:01N 37°49' W 122°19'2 4.8
2017-Aug-10 22:31N 37°48' W 122°21'2 4.8
2017-Aug-10 22:01N 37°49' W 122°24'0 0.1
2017-Aug-10 21:29N 37°49' W 122°24'2 3.3
2017-Aug-10 21:00N 37°48' W 122°23'0 0.1
2017-Aug-10 20:30N 37°48' W 122°23'0 0.0
2017-Aug-10 20:01N 37°48' W 122°23'0 0.0
2017-Aug-10 19:30N 37°48' W 122°23'0 0.0
2017-Aug-10 19:00N 37°48' W 122°23'0 0.0
2017-Aug-10 18:30N 37°48' W 122°23'0 0.0
2017-Aug-10 18:00N 37°48' W 122°23'0 0.0
2017-Aug-10 17:30N 37°48' W 122°23'0 0.0
2017-Aug-10 17:00N 37°48' W 122°23'0 0.0
2017-Aug-10 16:30N 37°48' W 122°23'0 0.0
2017-Aug-10 16:00N 37°48' W 122°23'0 0.0
2017-Aug-10 15:30N 37°48' W 122°23'1 2.8
2017-Aug-10 15:00N 37°49' W 122°24'0 0.3
2017-Aug-10 14:30N 37°49' W 122°24'1 2.4
2017-Aug-10 14:01N 37°48' W 122°23'0 0.7
2017-Aug-10 13:30N 37°48' W 122°23'2 3.4
2017-Aug-10 13:00N 37°48' W 122°21'2 3.7
2017-Aug-10 12:30N 37°49' W 122°18'0 0.0
2017-Aug-10 12:00N 37°49' W 122°18'0 0.0
2017-Aug-10 11:31N 37°49' W 122°18'0 0.0
2017-Aug-10 11:00N 37°49' W 122°18'0 0.0
2017-Aug-10 10:30N 37°49' W 122°18'0 0.0
2017-Aug-10 10:01N 37°49' W 122°18'0 0.0
2017-Aug-10 09:30N 37°49' W 122°18'0 0.0
2017-Aug-10 09:01N 37°49' W 122°18'0 0.0
2017-Aug-10 08:31N 37°49' W 122°18'0 0.0
2017-Aug-10 08:00N 37°49' W 122°18'0 0.0
2017-Aug-10 07:31N 37°49' W 122°18'0 0.0
2017-Aug-10 07:00N 37°49' W 122°18'0 0.0
2017-Aug-10 06:30N 37°49' W 122°18'0 0.0
2017-Aug-10 06:00N 37°49' W 122°18'0 0.0
2017-Aug-10 05:30N 37°49' W 122°18'0 0.0
2017-Aug-10 05:01N 37°49' W 122°18'0 0.0
2017-Aug-10 04:30N 37°49' W 122°18'0 0.0
2017-Aug-10 04:00N 37°49' W 122°18'0 0.0
2017-Aug-10 03:30N 37°49' W 122°18'0 0.0
2017-Aug-10 03:00N 37°49' W 122°18'0 0.0
2017-Aug-10 02:30N 37°49' W 122°18'0 0.0
2017-Aug-10 02:00N 37°49' W 122°18'0 0.0
2017-Aug-10 01:30N 37°49' W 122°18'0 0.1
2017-Aug-10 01:00N 37°49' W 122°19'4 7.1
2017-Aug-10 00:30N 37°48' W 122°23'1 2.7
2017-Aug-10 00:00N 37°49' W 122°24'0 0.1
2017-Aug-09 23:30N 37°49' W 122°24'0 0.1
2017-Aug-09 23:00N 37°49' W 122°24'0 0.0
2017-Aug-09 22:30N 37°49' W 122°24'0 0.0
2017-Aug-09 22:00N 37°49' W 122°24'0 0.0
2017-Aug-09 21:30N 37°49' W 122°24'2 4.4
2017-Aug-09 21:00N 37°48' W 122°22'3 5.3
2017-Aug-09 20:31N 37°49' W 122°19'3 5.4
2017-Aug-09 20:00N 37°48' W 122°22'1 1.4
2017-Aug-09 19:31N 37°48' W 122°23'0 0.0
2017-Aug-09 19:00N 37°48' W 122°23'0 0.0
2017-Aug-09 18:30N 37°48' W 122°23'0 0.0
2017-Aug-09 18:01N 37°48' W 122°23'0 0.1
2017-Aug-09 17:30N 37°48' W 122°22'0 0.0
2017-Aug-09 17:01N 37°48' W 122°22'0 0.3
2017-Aug-09 16:31N 37°48' W 122°23'2 3.1
2017-Aug-09 16:00N 37°49' W 122°24'0 0.0
2017-Aug-09 15:31N 37°49' W 122°24'0 0.1
2017-Aug-09 15:00N 37°49' W 122°24'0 0.1
2017-Aug-09 14:30N 37°49' W 122°24'1 2.7
2017-Aug-09 14:00N 37°48' W 122°23'1 2.1
2017-Aug-09 13:31N 37°48' W 122°22'3 5.1
2017-Aug-09 13:01N 37°49' W 122°19'0 0.2
2017-Aug-09 12:31N 37°49' W 122°18'0 0.0
2017-Aug-09 12:00N 37°49' W 122°18'0 0.0
2017-Aug-09 11:31N 37°49' W 122°18'0 0.0
2017-Aug-09 11:00N 37°49' W 122°18'0 0.0
2017-Aug-09 10:30N 37°49' W 122°18'0 0.0
2017-Aug-09 10:00N 37°49' W 122°18'0 0.0
2017-Aug-09 09:31N 37°49' W 122°18'0 0.0
2017-Aug-09 09:01N 37°49' W 122°18'0 0.0
2017-Aug-09 08:31N 37°49' W 122°18'0 0.0
2017-Aug-09 08:01N 37°49' W 122°18'0 0.0
2017-Aug-09 07:30N 37°49' W 122°18'0 0.0
2017-Aug-09 07:01N 37°49' W 122°18'0 0.0
2017-Aug-09 06:31N 37°49' W 122°18'0 0.0
2017-Aug-09 06:00N 37°49' W 122°18'0 0.0
2017-Aug-09 05:31N 37°49' W 122°18'0 0.0
2017-Aug-09 05:00N 37°49' W 122°18'0 0.0
2017-Aug-09 04:31N 37°49' W 122°18'0 0.0
2017-Aug-09 04:01N 37°49' W 122°18'0 0.0
2017-Aug-09 03:30N 37°49' W 122°18'0 0.0
2017-Aug-09 03:01N 37°49' W 122°18'0 0.0
2017-Aug-09 02:30N 37°49' W 122°18'0 0.0
2017-Aug-09 02:00N 37°49' W 122°18'  

Dump ship's entire track history